sensor_id;sensor_type;location;lat;lon;timestamp;temperature;humidity
14170;DHT22;63889;50.596;8.690;2023-08-08T00:02:04;15.50;99.90
14170;DHT22;63889;50.596;8.690;2023-08-08T00:04:29;15.50;99.90
14170;DHT22;63889;50.596;8.690;2023-08-08T00:06:55;15.50;99.90
14170;DHT22;63889;50.596;8.690;2023-08-08T00:09:20;15.50;99.90
14170;DHT22;63889;50.596;8.690;2023-08-08T00:11:46;15.60;99.90
14170;DHT22;63889;50.596;8.690;2023-08-08T00:14:11;15.60;99.90
14170;DHT22;63889;50.596;8.690;2023-08-08T00:16:37;15.70;99.90
14170;DHT22;63889;50.596;8.690;2023-08-08T00:19:02;15.60;99.90
14170;DHT22;63889;50.596;8.690;2023-08-08T00:21:28;15.60;99.90
14170;DHT22;63889;50.596;8.690;2023-08-08T00:23:54;15.60;99.90
14170;DHT22;63889;50.596;8.690;2023-08-08T00:26:19;15.60;99.90
14170;DHT22;63889;50.596;8.690;2023-08-08T00:28:45;15.70;99.90
14170;DHT22;63889;50.596;8.690;2023-08-08T00:31:10;15.70;99.90
14170;DHT22;63889;50.596;8.690;2023-08-08T00:33:36;15.60;99.90
14170;DHT22;63889;50.596;8.690;2023-08-08T00:36:01;15.60;99.90
14170;DHT22;63889;50.596;8.690;2023-08-08T00:38:27;15.60;99.90
14170;DHT22;63889;50.596;8.690;2023-08-08T00:40:52;15.50;99.90
14170;DHT22;63889;50.596;8.690;2023-08-08T00:43:18;15.40;99.90
14170;DHT22;63889;50.596;8.690;2023-08-08T00:45:44;15.40;99.90
14170;DHT22;63889;50.596;8.690;2023-08-08T00:48:10;15.30;99.90
14170;DHT22;63889;50.596;8.690;2023-08-08T00:50:37;15.20;99.90
14170;DHT22;63889;50.596;8.690;2023-08-08T00:53:04;15.20;99.90
14170;DHT22;63889;50.596;8.690;2023-08-08T00:55:30;15.20;99.90
14170;DHT22;63889;50.596;8.690;2023-08-08T00:57:56;15.20;99.90
14170;DHT22;63889;50.596;8.690;2023-08-08T01:00:22;15.10;99.90
14170;DHT22;63889;50.596;8.690;2023-08-08T01:02:47;15.10;99.90
14170;DHT22;63889;50.596;8.690;2023-08-08T01:05:13;15.20;99.90
14170;DHT22;63889;50.596;8.690;2023-08-08T01:07:54;15.20;99.90
14170;DHT22;63889;50.596;8.690;2023-08-08T01:10:29;15.10;99.90
14170;DHT22;63889;50.596;8.690;2023-08-08T01:13:02;15.00;99.90
14170;DHT22;63889;50.596;8.690;2023-08-08T01:15:29;15.00;99.90
14170;DHT22;63889;50.596;8.690;2023-08-08T01:18:02;15.10;99.90
14170;DHT22;63889;50.596;8.690;2023-08-08T01:20:28;15.10;99.90
14170;DHT22;63889;50.596;8.690;2023-08-08T01:25:53;15.00;99.90
14170;DHT22;63889;50.596;8.690;2023-08-08T01:28:23;15.00;99.90
14170;DHT22;63889;50.596;8.690;2023-08-08T01:30:49;15.00;99.90
14170;DHT22;63889;50.596;8.690;2023-08-08T01:33:15;15.00;99.90
14170;DHT22;63889;50.596;8.690;2023-08-08T01:35:44;14.90;99.90
14170;DHT22;63889;50.596;8.690;2023-08-08T01:38:19;14.90;99.90
14170;DHT22;63889;50.596;8.690;2023-08-08T01:40:45;14.90;99.90
14170;DHT22;63889;50.596;8.690;2023-08-08T01:43:12;14.90;99.90
14170;DHT22;63889;50.596;8.690;2023-08-08T01:45:40;14.80;99.90
14170;DHT22;63889;50.596;8.690;2023-08-08T01:48:08;14.80;99.90
14170;DHT22;63889;50.596;8.690;2023-08-08T01:50:34;14.80;99.90
14170;DHT22;63889;50.596;8.690;2023-08-08T01:52:59;14.80;99.90
14170;DHT22;63889;50.596;8.690;2023-08-08T01:55:25;14.80;99.90
14170;DHT22;63889;50.596;8.690;2023-08-08T01:57:50;14.70;99.90
14170;DHT22;63889;50.596;8.690;2023-08-08T02:00:16;14.60;99.90
14170;DHT22;63889;50.596;8.690;2023-08-08T02:02:41;14.60;99.90
14170;DHT22;63889;50.596;8.690;2023-08-08T02:05:07;14.60;99.90
14170;DHT22;63889;50.596;8.690;2023-08-08T02:07:32;14.60;99.90
14170;DHT22;63889;50.596;8.690;2023-08-08T02:09:58;14.60;99.90
14170;DHT22;63889;50.596;8.690;2023-08-08T02:12:23;14.70;99.90
14170;DHT22;63889;50.596;8.690;2023-08-08T02:14:49;14.60;99.90
14170;DHT22;63889;50.596;8.690;2023-08-08T02:17:15;14.50;99.90
14170;DHT22;63889;50.596;8.690;2023-08-08T02:19:40;14.50;99.90
14170;DHT22;63889;50.596;8.690;2023-08-08T02:22:06;14.50;99.90
14170;DHT22;63889;50.596;8.690;2023-08-08T02:24:31;14.50;99.90
14170;DHT22;63889;50.596;8.690;2023-08-08T02:26:57;14.50;99.90
14170;DHT22;63889;50.596;8.690;2023-08-08T02:29:22;14.50;99.90
14170;DHT22;63889;50.596;8.690;2023-08-08T02:31:48;14.50;99.90
14170;DHT22;63889;50.596;8.690;2023-08-08T02:34:13;14.50;99.90
14170;DHT22;63889;50.596;8.690;2023-08-08T02:36:39;14.40;99.90
14170;DHT22;63889;50.596;8.690;2023-08-08T02:39:04;14.40;99.90
14170;DHT22;63889;50.596;8.690;2023-08-08T02:41:30;14.40;99.90
14170;DHT22;63889;50.596;8.690;2023-08-08T02:43:55;14.30;99.90
14170;DHT22;63889;50.596;8.690;2023-08-08T02:46:21;14.30;99.90
14170;DHT22;63889;50.596;8.690;2023-08-08T02:48:46;14.20;99.90
14170;DHT22;63889;50.596;8.690;2023-08-08T02:51:12;14.20;99.90
14170;DHT22;63889;50.596;8.690;2023-08-08T02:53:37;14.20;99.90
14170;DHT22;63889;50.596;8.690;2023-08-08T02:56:03;14.30;99.90
14170;DHT22;63889;50.596;8.690;2023-08-08T02:58:29;14.40;99.90
14170;DHT22;63889;50.596;8.690;2023-08-08T03:00:54;14.40;99.90
14170;DHT22;63889;50.596;8.690;2023-08-08T03:03:20;14.40;99.90
14170;DHT22;63889;50.596;8.690;2023-08-08T03:05:45;14.30;99.90
14170;DHT22;63889;50.596;8.690;2023-08-08T03:08:13;14.20;99.90
14170;DHT22;63889;50.596;8.690;2023-08-08T03:10:39;14.10;99.90
14170;DHT22;63889;50.596;8.690;2023-08-08T03:13:06;14.00;99.90
14170;DHT22;63889;50.596;8.690;2023-08-08T03:15:32;14.10;99.90
14170;DHT22;63889;50.596;8.690;2023-08-08T03:17:57;14.10;99.90
14170;DHT22;63889;50.596;8.690;2023-08-08T03:20:23;14.30;99.90
14170;DHT22;63889;50.596;8.690;2023-08-08T03:22:49;14.40;99.90
14170;DHT22;63889;50.596;8.690;2023-08-08T03:25:14;14.40;99.90
14170;DHT22;63889;50.596;8.690;2023-08-08T03:27:40;14.30;99.90
14170;DHT22;63889;50.596;8.690;2023-08-08T03:30:06;14.30;99.90
14170;DHT22;63889;50.596;8.690;2023-08-08T03:32:32;14.20;99.90
14170;DHT22;63889;50.596;8.690;2023-08-08T03:34:57;14.10;99.90
14170;DHT22;63889;50.596;8.690;2023-08-08T03:37:23;14.00;99.90
14170;DHT22;63889;50.596;8.690;2023-08-08T03:39:48;13.90;99.90
14170;DHT22;63889;50.596;8.690;2023-08-08T03:42:14;13.90;99.90
14170;DHT22;63889;50.596;8.690;2023-08-08T03:44:39;13.90;99.90
14170;DHT22;63889;50.596;8.690;2023-08-08T03:47:06;13.80;99.90
14170;DHT22;63889;50.596;8.690;2023-08-08T03:49:32;13.80;99.90
14170;DHT22;63889;50.596;8.690;2023-08-08T03:51:57;13.70;99.90
14170;DHT22;63889;50.596;8.690;2023-08-08T03:54:23;13.60;99.90
14170;DHT22;63889;50.596;8.690;2023-08-08T03:56:48;13.50;99.90
14170;DHT22;63889;50.596;8.690;2023-08-08T03:59:14;13.40;99.90
14170;DHT22;63889;50.596;8.690;2023-08-08T04:01:39;13.40;99.90
14170;DHT22;63889;50.596;8.690;2023-08-08T04:04:05;13.40;99.90
14170;DHT22;63889;50.596;8.690;2023-08-08T04:06:30;13.40;99.90
14170;DHT22;63889;50.596;8.690;2023-08-08T04:08:56;13.30;99.90
14170;DHT22;63889;50.596;8.690;2023-08-08T04:11:22;13.30;99.90
14170;DHT22;63889;50.596;8.690;2023-08-08T04:13:47;13.30;99.90
14170;DHT22;63889;50.596;8.690;2023-08-08T04:16:14;13.30;99.90
14170;DHT22;63889;50.596;8.690;2023-08-08T04:18:39;13.20;99.90
14170;DHT22;63889;50.596;8.690;2023-08-08T04:21:05;13.20;99.90
14170;DHT22;63889;50.596;8.690;2023-08-08T04:23:30;13.10;99.90
14170;DHT22;63889;50.596;8.690;2023-08-08T04:25:56;13.00;99.90
14170;DHT22;63889;50.596;8.690;2023-08-08T04:28:21;13.00;99.90
14170;DHT22;63889;50.596;8.690;2023-08-08T04:30:47;12.90;99.90
14170;DHT22;63889;50.596;8.690;2023-08-08T04:33:13;12.90;99.90
14170;DHT22;63889;50.596;8.690;2023-08-08T04:35:38;12.90;99.90
14170;DHT22;63889;50.596;8.690;2023-08-08T04:38:04;13.00;99.90
14170;DHT22;63889;50.596;8.690;2023-08-08T04:40:29;13.10;99.90
14170;DHT22;63889;50.596;8.690;2023-08-08T04:42:55;13.20;99.90
14170;DHT22;63889;50.596;8.690;2023-08-08T04:45:21;13.20;99.90
14170;DHT22;63889;50.596;8.690;2023-08-08T04:47:47;13.20;99.90
14170;DHT22;63889;50.596;8.690;2023-08-08T04:50:12;13.20;99.90
14170;DHT22;63889;50.596;8.690;2023-08-08T04:52:38;13.10;99.90
14170;DHT22;63889;50.596;8.690;2023-08-08T04:55:03;13.10;99.90
14170;DHT22;63889;50.596;8.690;2023-08-08T04:57:29;13.10;99.90
14170;DHT22;63889;50.596;8.690;2023-08-08T04:59:54;13.10;99.90
14170;DHT22;63889;50.596;8.690;2023-08-08T05:02:20;13.00;99.90
14170;DHT22;63889;50.596;8.690;2023-08-08T05:04:46;13.10;99.90
14170;DHT22;63889;50.596;8.690;2023-08-08T05:07:11;13.20;99.90
14170;DHT22;63889;50.596;8.690;2023-08-08T05:09:37;13.20;99.90
14170;DHT22;63889;50.596;8.690;2023-08-08T05:12:03;13.30;99.90
14170;DHT22;63889;50.596;8.690;2023-08-08T05:14:28;13.40;99.90
14170;DHT22;63889;50.596;8.690;2023-08-08T05:16:54;13.50;99.90
14170;DHT22;63889;50.596;8.690;2023-08-08T05:19:19;13.60;99.90
14170;DHT22;63889;50.596;8.690;2023-08-08T05:21:45;13.80;99.90
14170;DHT22;63889;50.596;8.690;2023-08-08T05:24:10;13.90;99.90
14170;DHT22;63889;50.596;8.690;2023-08-08T05:26:36;14.00;99.90
14170;DHT22;63889;50.596;8.690;2023-08-08T05:29:01;14.00;99.90
14170;DHT22;63889;50.596;8.690;2023-08-08T05:31:27;14.10;99.90
14170;DHT22;63889;50.596;8.690;2023-08-08T05:33:53;14.30;99.90
14170;DHT22;63889;50.596;8.690;2023-08-08T05:36:18;14.30;99.90
14170;DHT22;63889;50.596;8.690;2023-08-08T05:38:44;14.30;99.90
14170;DHT22;63889;50.596;8.690;2023-08-08T05:41:09;14.30;99.90
14170;DHT22;63889;50.596;8.690;2023-08-08T05:43:35;14.30;99.90
14170;DHT22;63889;50.596;8.690;2023-08-08T05:46:02;14.20;99.90
14170;DHT22;63889;50.596;8.690;2023-08-08T05:48:27;14.30;99.90
14170;DHT22;63889;50.596;8.690;2023-08-08T05:50:53;14.40;99.90
14170;DHT22;63889;50.596;8.690;2023-08-08T05:53:18;14.40;99.90
14170;DHT22;63889;50.596;8.690;2023-08-08T05:55:44;14.40;99.90
14170;DHT22;63889;50.596;8.690;2023-08-08T05:58:09;14.40;99.90
14170;DHT22;63889;50.596;8.690;2023-08-08T06:00:35;14.40;99.90
14170;DHT22;63889;50.596;8.690;2023-08-08T06:03:01;14.40;99.90
14170;DHT22;63889;50.596;8.690;2023-08-08T06:05:27;14.40;99.90
14170;DHT22;63889;50.596;8.690;2023-08-08T06:07:53;14.40;99.90
14170;DHT22;63889;50.596;8.690;2023-08-08T06:10:20;14.40;99.90
14170;DHT22;63889;50.596;8.690;2023-08-08T06:12:46;14.40;99.90
14170;DHT22;63889;50.596;8.690;2023-08-08T06:15:11;14.40;99.90
14170;DHT22;63889;50.596;8.690;2023-08-08T06:17:37;14.40;99.90
14170;DHT22;63889;50.596;8.690;2023-08-08T06:20:03;14.40;99.90
14170;DHT22;63889;50.596;8.690;2023-08-08T06:22:28;14.50;99.90
14170;DHT22;63889;50.596;8.690;2023-08-08T06:24:54;14.60;99.90
14170;DHT22;63889;50.596;8.690;2023-08-08T06:27:19;14.60;99.90
14170;DHT22;63889;50.596;8.690;2023-08-08T06:29:45;14.70;99.90
14170;DHT22;63889;50.596;8.690;2023-08-08T06:32:10;14.80;99.90
14170;DHT22;63889;50.596;8.690;2023-08-08T06:34:36;14.80;99.90
14170;DHT22;63889;50.596;8.690;2023-08-08T06:37:01;14.90;99.90
14170;DHT22;63889;50.596;8.690;2023-08-08T06:39:27;14.90;99.90
14170;DHT22;63889;50.596;8.690;2023-08-08T06:41:52;15.00;99.90
14170;DHT22;63889;50.596;8.690;2023-08-08T06:44:19;15.10;99.90
14170;DHT22;63889;50.596;8.690;2023-08-08T06:46:44;15.20;99.90
14170;DHT22;63889;50.596;8.690;2023-08-08T06:49:10;15.30;99.90
14170;DHT22;63889;50.596;8.690;2023-08-08T06:51:35;15.40;99.90
14170;DHT22;63889;50.596;8.690;2023-08-08T06:54:01;15.50;99.90
14170;DHT22;63889;50.596;8.690;2023-08-08T06:56:27;15.60;99.90
14170;DHT22;63889;50.596;8.690;2023-08-08T06:58:53;15.70;99.90
14170;DHT22;63889;50.596;8.690;2023-08-08T07:01:18;15.80;99.90
14170;DHT22;63889;50.596;8.690;2023-08-08T07:03:44;15.80;99.90
14170;DHT22;63889;50.596;8.690;2023-08-08T07:06:10;15.90;99.90
14170;DHT22;63889;50.596;8.690;2023-08-08T07:08:36;15.90;99.90
14170;DHT22;63889;50.596;8.690;2023-08-08T07:11:05;16.00;99.90
14170;DHT22;63889;50.596;8.690;2023-08-08T07:13:31;16.10;99.90
14170;DHT22;63889;50.596;8.690;2023-08-08T07:15:56;16.20;99.90
14170;DHT22;63889;50.596;8.690;2023-08-08T07:18:22;16.30;99.90
14170;DHT22;63889;50.596;8.690;2023-08-08T07:20:47;16.30;99.90
14170;DHT22;63889;50.596;8.690;2023-08-08T07:23:15;16.40;99.90
14170;DHT22;63889;50.596;8.690;2023-08-08T07:25:41;16.50;99.90
14170;DHT22;63889;50.596;8.690;2023-08-08T07:28:07;16.50;99.90
14170;DHT22;63889;50.596;8.690;2023-08-08T07:30:33;16.50;99.90
14170;DHT22;63889;50.596;8.690;2023-08-08T07:32:58;16.50;99.90
14170;DHT22;63889;50.596;8.690;2023-08-08T07:35:24;16.60;99.90
14170;DHT22;63889;50.596;8.690;2023-08-08T07:37:49;16.50;99.90
14170;DHT22;63889;50.596;8.690;2023-08-08T07:40:16;16.50;99.90
14170;DHT22;63889;50.596;8.690;2023-08-08T07:42:43;16.60;99.90
14170;DHT22;63889;50.596;8.690;2023-08-08T07:45:09;16.60;99.90
14170;DHT22;63889;50.596;8.690;2023-08-08T07:47:34;16.60;99.90
14170;DHT22;63889;50.596;8.690;2023-08-08T07:50:00;16.70;99.90
14170;DHT22;63889;50.596;8.690;2023-08-08T07:52:26;16.60;99.90
14170;DHT22;63889;50.596;8.690;2023-08-08T07:54:51;16.70;99.90
14170;DHT22;63889;50.596;8.690;2023-08-08T07:57:17;16.70;99.90
14170;DHT22;63889;50.596;8.690;2023-08-08T07:59:42;16.80;99.90
14170;DHT22;63889;50.596;8.690;2023-08-08T08:02:08;16.90;99.90
14170;DHT22;63889;50.596;8.690;2023-08-08T08:04:34;17.10;99.90
14170;DHT22;63889;50.596;8.690;2023-08-08T08:07:00;17.20;99.90
14170;DHT22;63889;50.596;8.690;2023-08-08T08:09:25;17.20;99.90
14170;DHT22;63889;50.596;8.690;2023-08-08T08:11:51;17.30;99.90
14170;DHT22;63889;50.596;8.690;2023-08-08T08:14:16;17.20;99.90
14170;DHT22;63889;50.596;8.690;2023-08-08T08:16:42;17.20;99.90
14170;DHT22;63889;50.596;8.690;2023-08-08T08:19:07;17.10;99.90
14170;DHT22;63889;50.596;8.690;2023-08-08T08:21:33;17.20;99.90
14170;DHT22;63889;50.596;8.690;2023-08-08T08:23:58;17.20;99.90
14170;DHT22;63889;50.596;8.690;2023-08-08T08:26:24;17.40;99.90
14170;DHT22;63889;50.596;8.690;2023-08-08T08:28:49;17.40;99.90
14170;DHT22;63889;50.596;8.690;2023-08-08T08:31:15;17.50;99.90
14170;DHT22;63889;50.596;8.690;2023-08-08T08:33:40;17.50;99.90
14170;DHT22;63889;50.596;8.690;2023-08-08T08:36:06;17.50;99.90
14170;DHT22;63889;50.596;8.690;2023-08-08T08:38:32;17.60;99.90
14170;DHT22;63889;50.596;8.690;2023-08-08T08:40:58;17.80;99.90
14170;DHT22;63889;50.596;8.690;2023-08-08T08:43:24;17.90;99.90
14170;DHT22;63889;50.596;8.690;2023-08-08T08:45:52;18.00;99.90
14170;DHT22;63889;50.596;8.690;2023-08-08T08:48:18;18.10;99.90
14170;DHT22;63889;50.596;8.690;2023-08-08T08:50:47;18.20;99.90
14170;DHT22;63889;50.596;8.690;2023-08-08T08:53:13;18.20;99.90
14170;DHT22;63889;50.596;8.690;2023-08-08T08:55:41;18.30;99.90
14170;DHT22;63889;50.596;8.690;2023-08-08T08:58:06;18.30;99.90
14170;DHT22;63889;50.596;8.690;2023-08-08T09:00:33;18.40;99.90
14170;DHT22;63889;50.596;8.690;2023-08-08T09:02:59;18.50;99.90
14170;DHT22;63889;50.596;8.690;2023-08-08T09:05:25;18.50;99.90
14170;DHT22;63889;50.596;8.690;2023-08-08T09:07:51;18.50;99.90
14170;DHT22;63889;50.596;8.690;2023-08-08T09:10:18;18.50;99.90
14170;DHT22;63889;50.596;8.690;2023-08-08T09:12:44;18.50;99.90
14170;DHT22;63889;50.596;8.690;2023-08-08T09:15:11;18.50;99.90
14170;DHT22;63889;50.596;8.690;2023-08-08T09:17:43;18.60;99.90
14170;DHT22;63889;50.596;8.690;2023-08-08T09:20:09;18.70;99.90
14170;DHT22;63889;50.596;8.690;2023-08-08T09:22:36;18.60;99.90
14170;DHT22;63889;50.596;8.690;2023-08-08T09:25:03;18.60;99.90
14170;DHT22;63889;50.596;8.690;2023-08-08T09:27:29;18.80;99.90
14170;DHT22;63889;50.596;8.690;2023-08-08T09:29:55;18.70;99.90
14170;DHT22;63889;50.596;8.690;2023-08-08T09:32:20;18.70;99.90
14170;DHT22;63889;50.596;8.690;2023-08-08T09:34:46;18.80;99.90
14170;DHT22;63889;50.596;8.690;2023-08-08T09:37:11;18.90;99.90
14170;DHT22;63889;50.596;8.690;2023-08-08T09:39:37;19.00;99.90
14170;DHT22;63889;50.596;8.690;2023-08-08T09:42:03;19.20;99.90
14170;DHT22;63889;50.596;8.690;2023-08-08T09:44:31;19.20;99.90
14170;DHT22;63889;50.596;8.690;2023-08-08T09:47:00;19.10;99.90
14170;DHT22;63889;50.596;8.690;2023-08-08T09:49:27;19.20;99.90
14170;DHT22;63889;50.596;8.690;2023-08-08T09:51:54;19.10;99.90
14170;DHT22;63889;50.596;8.690;2023-08-08T09:54:20;19.10;99.90
14170;DHT22;63889;50.596;8.690;2023-08-08T09:56:47;19.10;99.90
14170;DHT22;63889;50.596;8.690;2023-08-08T09:59:14;19.10;99.90
14170;DHT22;63889;50.596;8.690;2023-08-08T10:01:40;19.20;99.90
14170;DHT22;63889;50.596;8.690;2023-08-08T10:04:07;19.20;99.90
14170;DHT22;63889;50.596;8.690;2023-08-08T10:06:33;19.40;99.90
14170;DHT22;63889;50.596;8.690;2023-08-08T10:09:01;19.50;99.90
14170;DHT22;63889;50.596;8.690;2023-08-08T10:11:27;19.50;99.90
14170;DHT22;63889;50.596;8.690;2023-08-08T10:13:54;19.50;99.90
14170;DHT22;63889;50.596;8.690;2023-08-08T10:16:22;19.60;99.90
14170;DHT22;63889;50.596;8.690;2023-08-08T10:19:02;19.50;99.90
14170;DHT22;63889;50.596;8.690;2023-08-08T10:21:33;19.60;99.90
14170;DHT22;63889;50.596;8.690;2023-08-08T10:24:06;19.70;99.90
14170;DHT22;63889;50.596;8.690;2023-08-08T10:26:32;19.70;99.90
14170;DHT22;63889;50.596;8.690;2023-08-08T10:28:59;19.80;99.90
14170;DHT22;63889;50.596;8.690;2023-08-08T10:31:26;19.90;99.90
14170;DHT22;63889;50.596;8.690;2023-08-08T10:34:03;19.90;99.90
14170;DHT22;63889;50.596;8.690;2023-08-08T10:36:51;20.00;99.90
14170;DHT22;63889;50.596;8.690;2023-08-08T10:39:18;20.20;99.90
14170;DHT22;63889;50.596;8.690;2023-08-08T10:41:47;20.00;99.90
14170;DHT22;63889;50.596;8.690;2023-08-08T10:44:13;20.00;99.90
14170;DHT22;63889;50.596;8.690;2023-08-08T10:46:41;20.10;99.90
14170;DHT22;63889;50.596;8.690;2023-08-08T10:49:07;20.30;99.90
14170;DHT22;63889;50.596;8.690;2023-08-08T10:51:37;20.50;99.90
14170;DHT22;63889;50.596;8.690;2023-08-08T10:54:05;20.60;99.90
14170;DHT22;63889;50.596;8.690;2023-08-08T10:56:31;20.60;99.90
14170;DHT22;63889;50.596;8.690;2023-08-08T10:58:57;20.50;99.90
14170;DHT22;63889;50.596;8.690;2023-08-08T11:01:25;20.50;99.90
14170;DHT22;63889;50.596;8.690;2023-08-08T11:03:52;20.60;99.90
14170;DHT22;63889;50.596;8.690;2023-08-08T11:06:18;20.50;99.90
14170;DHT22;63889;50.596;8.690;2023-08-08T11:08:44;20.40;99.90
14170;DHT22;63889;50.596;8.690;2023-08-08T11:11:10;20.30;99.90
14170;DHT22;63889;50.596;8.690;2023-08-08T11:13:35;20.10;99.90
14170;DHT22;63889;50.596;8.690;2023-08-08T11:16:01;20.00;99.90
14170;DHT22;63889;50.596;8.690;2023-08-08T11:18:27;20.00;99.90
14170;DHT22;63889;50.596;8.690;2023-08-08T11:20:53;20.10;99.90
14170;DHT22;63889;50.596;8.690;2023-08-08T11:23:19;20.20;99.90
14170;DHT22;63889;50.596;8.690;2023-08-08T11:25:46;20.50;99.90
14170;DHT22;63889;50.596;8.690;2023-08-08T11:28:12;20.70;99.90
14170;DHT22;63889;50.596;8.690;2023-08-08T11:30:41;20.70;99.90
14170;DHT22;63889;50.596;8.690;2023-08-08T11:33:07;20.80;99.90
14170;DHT22;63889;50.596;8.690;2023-08-08T11:35:33;20.90;99.90
14170;DHT22;63889;50.596;8.690;2023-08-08T11:38:00;21.10;99.90
14170;DHT22;63889;50.596;8.690;2023-08-08T11:40:28;21.20;99.90
14170;DHT22;63889;50.596;8.690;2023-08-08T11:42:55;21.40;99.90
14170;DHT22;63889;50.596;8.690;2023-08-08T11:45:22;21.70;99.90
14170;DHT22;63889;50.596;8.690;2023-08-08T11:47:49;21.60;99.90
14170;DHT22;63889;50.596;8.690;2023-08-08T11:50:15;21.50;99.90
14170;DHT22;63889;50.596;8.690;2023-08-08T11:52:42;21.30;99.90
14170;DHT22;63889;50.596;8.690;2023-08-08T11:55:11;21.10;99.90
14170;DHT22;63889;50.596;8.690;2023-08-08T11:57:38;21.10;99.90
14170;DHT22;63889;50.596;8.690;2023-08-08T12:02:33;20.80;99.90
14170;DHT22;63889;50.596;8.690;2023-08-08T12:05:04;20.70;99.90
14170;DHT22;63889;50.596;8.690;2023-08-08T12:07:32;20.60;99.90
14170;DHT22;63889;50.596;8.690;2023-08-08T12:09:58;20.40;99.90
14170;DHT22;63889;50.596;8.690;2023-08-08T12:12:26;20.30;99.90
14170;DHT22;63889;50.596;8.690;2023-08-08T12:14:53;20.20;99.90
14170;DHT22;63889;50.596;8.690;2023-08-08T12:17:20;20.10;99.90
14170;DHT22;63889;50.596;8.690;2023-08-08T12:19:47;20.00;99.90
14170;DHT22;63889;50.596;8.690;2023-08-08T12:22:13;20.00;99.90
14170;DHT22;63889;50.596;8.690;2023-08-08T12:24:39;20.00;99.90
14170;DHT22;63889;50.596;8.690;2023-08-08T12:27:04;20.10;99.90
14170;DHT22;63889;50.596;8.690;2023-08-08T12:29:30;20.20;99.90
14170;DHT22;63889;50.596;8.690;2023-08-08T12:31:56;20.40;99.90
14170;DHT22;63889;50.596;8.690;2023-08-08T12:34:22;20.60;99.90
14170;DHT22;63889;50.596;8.690;2023-08-08T12:36:47;20.90;99.90
14170;DHT22;63889;50.596;8.690;2023-08-08T12:39:13;21.00;99.90
14170;DHT22;63889;50.596;8.690;2023-08-08T12:41:39;21.10;99.90
14170;DHT22;63889;50.596;8.690;2023-08-08T12:44:05;21.10;99.90
14170;DHT22;63889;50.596;8.690;2023-08-08T12:46:31;20.90;99.90
14170;DHT22;63889;50.596;8.690;2023-08-08T12:48:56;20.70;99.90
14170;DHT22;63889;50.596;8.690;2023-08-08T12:51:22;20.50;99.90
14170;DHT22;63889;50.596;8.690;2023-08-08T12:53:47;20.30;99.90
14170;DHT22;63889;50.596;8.690;2023-08-08T12:56:13;20.10;99.90
14170;DHT22;63889;50.596;8.690;2023-08-08T12:58:38;20.10;99.90
14170;DHT22;63889;50.596;8.690;2023-08-08T13:01:06;19.90;99.90
14170;DHT22;63889;50.596;8.690;2023-08-08T13:03:33;19.70;99.90
14170;DHT22;63889;50.596;8.690;2023-08-08T13:06:00;19.60;99.90
14170;DHT22;63889;50.596;8.690;2023-08-08T13:08:25;19.50;99.90
14170;DHT22;63889;50.596;8.690;2023-08-08T13:10:51;19.50;99.90
14170;DHT22;63889;50.596;8.690;2023-08-08T13:13:16;19.40;99.90
14170;DHT22;63889;50.596;8.690;2023-08-08T13:15:42;19.40;99.90
14170;DHT22;63889;50.596;8.690;2023-08-08T13:18:07;19.40;99.90
14170;DHT22;63889;50.596;8.690;2023-08-08T13:20:33;19.40;99.90
14170;DHT22;63889;50.596;8.690;2023-08-08T13:22:58;19.30;99.90
14170;DHT22;63889;50.596;8.690;2023-08-08T13:25:24;19.30;99.90
14170;DHT22;63889;50.596;8.690;2023-08-08T13:27:49;19.30;99.90
14170;DHT22;63889;50.596;8.690;2023-08-08T13:30:15;19.30;99.90
14170;DHT22;63889;50.596;8.690;2023-08-08T13:32:42;19.30;99.90
14170;DHT22;63889;50.596;8.690;2023-08-08T13:35:07;19.30;99.90
14170;DHT22;63889;50.596;8.690;2023-08-08T13:37:33;19.30;99.90
14170;DHT22;63889;50.596;8.690;2023-08-08T13:39:58;19.30;99.90
14170;DHT22;63889;50.596;8.690;2023-08-08T13:42:24;19.40;99.90
14170;DHT22;63889;50.596;8.690;2023-08-08T13:44:49;19.40;99.90
14170;DHT22;63889;50.596;8.690;2023-08-08T13:47:15;19.50;99.90
14170;DHT22;63889;50.596;8.690;2023-08-08T13:49:40;19.40;99.90
14170;DHT22;63889;50.596;8.690;2023-08-08T13:52:06;19.30;99.90
14170;DHT22;63889;50.596;8.690;2023-08-08T13:54:33;19.30;99.90
14170;DHT22;63889;50.596;8.690;2023-08-08T13:56:58;19.20;99.90
14170;DHT22;63889;50.596;8.690;2023-08-08T13:59:24;19.20;99.90
14170;DHT22;63889;50.596;8.690;2023-08-08T14:01:49;19.20;99.90
14170;DHT22;63889;50.596;8.690;2023-08-08T14:04:15;19.20;99.90
14170;DHT22;63889;50.596;8.690;2023-08-08T14:06:40;19.20;99.90
14170;DHT22;63889;50.596;8.690;2023-08-08T14:09:06;19.20;99.90
14170;DHT22;63889;50.596;8.690;2023-08-08T14:11:32;19.20;99.90
14170;DHT22;63889;50.596;8.690;2023-08-08T14:13:58;19.30;99.90
14170;DHT22;63889;50.596;8.690;2023-08-08T14:16:23;19.20;99.90
14170;DHT22;63889;50.596;8.690;2023-08-08T14:18:49;19.10;99.90
14170;DHT22;63889;50.596;8.690;2023-08-08T14:21:15;18.90;99.90
14170;DHT22;63889;50.596;8.690;2023-08-08T14:23:40;18.90;99.90
14170;DHT22;63889;50.596;8.690;2023-08-08T14:26:06;18.90;99.90
14170;DHT22;63889;50.596;8.690;2023-08-08T14:28:31;19.10;99.90
14170;DHT22;63889;50.596;8.690;2023-08-08T14:30:57;19.20;99.90
14170;DHT22;63889;50.596;8.690;2023-08-08T14:33:22;19.20;99.90
14170;DHT22;63889;50.596;8.690;2023-08-08T14:35:48;19.30;99.90
14170;DHT22;63889;50.596;8.690;2023-08-08T14:38:14;19.30;99.90
14170;DHT22;63889;50.596;8.690;2023-08-08T14:40:39;19.40;99.90
14170;DHT22;63889;50.596;8.690;2023-08-08T14:43:05;19.50;99.90
14170;DHT22;63889;50.596;8.690;2023-08-08T14:45:36;19.50;99.90
14170;DHT22;63889;50.596;8.690;2023-08-08T14:48:04;19.50;99.90
14170;DHT22;63889;50.596;8.690;2023-08-08T14:50:29;19.40;99.90
14170;DHT22;63889;50.596;8.690;2023-08-08T14:52:55;19.40;99.90
14170;DHT22;63889;50.596;8.690;2023-08-08T14:55:20;19.30;99.90
14170;DHT22;63889;50.596;8.690;2023-08-08T14:57:46;19.10;99.90
14170;DHT22;63889;50.596;8.690;2023-08-08T15:00:12;19.10;99.90
14170;DHT22;63889;50.596;8.690;2023-08-08T15:02:38;19.10;99.90
14170;DHT22;63889;50.596;8.690;2023-08-08T15:05:04;19.00;99.90
14170;DHT22;63889;50.596;8.690;2023-08-08T15:07:29;19.00;99.90
14170;DHT22;63889;50.596;8.690;2023-08-08T15:09:55;19.10;99.90
14170;DHT22;63889;50.596;8.690;2023-08-08T15:12:20;19.00;99.90
14170;DHT22;63889;50.596;8.690;2023-08-08T15:14:46;18.90;99.90
14170;DHT22;63889;50.596;8.690;2023-08-08T15:17:13;18.80;99.90
14170;DHT22;63889;50.596;8.690;2023-08-08T15:19:39;18.80;99.90
14170;DHT22;63889;50.596;8.690;2023-08-08T15:22:05;18.90;99.90
14170;DHT22;63889;50.596;8.690;2023-08-08T15:24:30;18.90;99.90
14170;DHT22;63889;50.596;8.690;2023-08-08T15:26:56;18.90;99.90
14170;DHT22;63889;50.596;8.690;2023-08-08T15:29:21;18.90;99.90